Time;durP1;ratioP1;P1;durP2;ratioP2;P2;SDS_P1;SDS_P2;PMS_P1;PMS_P2;Temp;Humidity;BMP_temperature;BMP_pressure;BME280_temperature;BME280_humidity;BME280_pressure;Samples;Min_cycle;Max_cycle;Signal;HPM_P1;HPM_P2
2022/10/16 00:00:07;;;;;;;3.00;2.73;;;15.40;99.90;;;;;;5226821;28;20203;-49
2022/10/16 00:02:38;;;;;;;2.40;2.30;;;15.30;99.90;;;;;;5228514;28;20587;-47
2022/10/16 00:05:08;;;;;;;2.90;2.70;;;15.40;99.90;;;;;;5228114;28;20472;-47
2022/10/16 00:07:39;;;;;;;2.43;2.33;;;15.30;99.90;;;;;;5228770;28;20268;-47
2022/10/16 00:10:09;;;;;;;2.20;2.10;;;15.60;99.90;;;;;;5225603;28;20746;-48
2022/10/16 00:12:40;;;;;;;2.57;2.47;;;15.50;99.90;;;;;;5229468;28;20186;-48
2022/10/16 00:15:11;;;;;;;2.60;2.50;;;15.50;99.90;;;;;;5225472;28;20183;-48
2022/10/16 00:17:41;;;;;;;2.23;2.23;;;15.70;99.90;;;;;;5220592;28;20191;-47
2022/10/16 00:20:12;;;;;;;3.10;2.90;;;15.70;99.90;;;;;;5204776;28;20694;-49
2022/10/16 00:22:42;;;;;;;2.43;2.23;;;15.80;99.90;;;;;;5223343;28;20194;-47
2022/10/16 00:25:13;;;;;;;3.43;2.50;;;15.70;99.90;;;;;;5228407;28;20206;-47
2022/10/16 00:27:43;;;;;;;2.13;2.03;;;15.80;99.90;;;;;;5208720;28;20207;-51
2022/10/16 00:30:14;;;;;;;2.07;1.93;;;15.70;99.90;;;;;;5230721;28;20199;-49
2022/10/16 00:32:45;;;;;;;4.27;2.80;;;15.70;99.90;;;;;;5220877;28;20175;-50
2022/10/16 00:35:15;;;;;;;2.33;2.23;;;15.70;99.90;;;;;;5222401;28;20189;-49
2022/10/16 00:37:46;;;;;;;2.57;2.47;;;15.70;99.90;;;;;;5219466;28;20211;-47
2022/10/16 00:40:17;;;;;;;2.57;2.47;;;15.60;99.90;;;;;;5236376;28;20363;-48
2022/10/16 00:42:47;;;;;;;2.33;2.23;;;15.50;99.90;;;;;;5220678;28;20182;-47
2022/10/16 00:45:18;;;;;;;2.80;2.70;;;15.50;99.90;;;;;;5225905;28;20441;-48
2022/10/16 00:47:51;;;;;;;3.00;2.80;;;15.50;99.90;;;;;;5222053;28;20210;-47
2022/10/16 00:50:33;;;;;;;4.27;3.23;;;15.50;99.90;;;;;;5219588;28;20299;-48
2022/10/16 00:53:04;;;;;;;2.10;2.00;;;15.60;99.90;;;;;;5224224;28;20434;-47
2022/10/16 00:55:36;;;;;;;2.40;2.30;;;15.50;99.90;;;;;;5226962;28;20428;-48
2022/10/16 00:58:06;;;;;;;2.70;2.50;;;15.60;99.90;;;;;;5218545;28;20230;-48
2022/10/16 01:00:37;;;;;;;1.97;1.97;;;15.60;99.90;;;;;;5219615;28;20511;-52
2022/10/16 01:03:24;;;;;;;1.87;1.77;;;15.50;99.90;;;;;;5225361;28;20175;-48
2022/10/16 01:06:08;;;;;;;3.00;2.80;;;15.50;99.90;;;;;;5220123;28;20194;-48
2022/10/16 01:09:04;;;;;;;2.67;2.47;;;15.40;99.90;;;;;;5225675;28;21033;-48
2022/10/16 01:12:08;;;;;;;1.67;1.67;;;15.30;99.90;;;;;;5224428;28;20469;-50
2022/10/16 01:14:56;;;;;;;3.97;2.33;;;15.30;99.90;;;;;;5214306;28;20453;-48
2022/10/16 01:17:52;;;;;;;2.73;2.63;;;15.30;99.90;;;;;;5225603;28;20455;-48
2022/10/16 01:20:28;;;;;;;1.93;1.83;;;15.40;99.90;;;;;;5223120;28;20437;-47
2022/10/16 01:23:05;;;;;;;3.23;2.93;;;15.30;99.90;;;;;;5222321;28;20429;-47
2022/10/16 01:25:54;;;;;;;3.63;2.37;;;15.30;99.90;;;;;;5224849;28;20434;-48
2022/10/16 01:28:32;;;;;;;5.00;3.23;;;15.30;99.90;;;;;;5229041;28;20643;-47
2022/10/16 01:31:03;;;;;;;3.30;3.10;;;15.20;99.90;;;;;;5220197;28;20512;-49
2022/10/16 01:33:42;;;;;;;3.10;3.00;;;15.10;99.90;;;;;;5225573;28;20446;-48
2022/10/16 01:36:17;;;;;;;4.40;2.70;;;15.20;99.90;;;;;;5227738;28;22413;-47
2022/10/16 01:38:51;;;;;;;5.10;3.30;;;15.20;99.90;;;;;;5228131;28;20456;-48
2022/10/16 01:41:30;;;;;;;3.47;2.10;;;15.20;99.90;;;;;;5223140;28;20487;-48
2022/10/16 01:44:10;;;;;;;1.20;1.20;;;15.30;99.90;;;;;;5228458;28;20448;-48
2022/10/16 01:46:45;;;;;;;1.67;1.67;;;15.30;99.90;;;;;;5229268;28;20455;-46
2022/10/16 01:49:17;;;;;;;4.20;1.70;;;15.30;99.90;;;;;;5228526;28;20574;-47
2022/10/16 01:51:54;;;;;;;1.60;1.50;;;15.20;99.90;;;;;;5226924;28;20469;-47
2022/10/16 01:54:28;;;;;;;4.50;2.00;;;15.20;99.90;;;;;;5220748;28;20440;-46
2022/10/16 01:57:00;;;;;;;1.70;1.70;;;15.20;99.90;;;;;;5234954;28;20429;-47
2022/10/16 01:59:32;;;;;;;1.40;1.30;;;15.20;99.90;;;;;;5229353;28;20543;-47
2022/10/16 02:02:07;;;;;;;2.47;2.37;;;15.20;99.90;;;;;;5226829;28;20507;-47
2022/10/16 02:04:45;;;;;;;2.03;1.93;;;15.20;99.90;;;;;;5228914;28;20433;-46
2022/10/16 02:07:16;;;;;;;1.50;1.50;;;15.30;99.90;;;;;;5228549;28;20426;-47
2022/10/16 02:09:47;;;;;;;1.63;1.63;;;15.40;99.90;;;;;;5216618;28;20779;-47
2022/10/16 02:12:27;;;;;;;1.63;1.60;;;15.40;99.90;;;;;;5226829;28;20444;-47
2022/10/16 02:14:57;;;;;;;2.10;2.00;;;15.40;99.90;;;;;;5231482;28;20186;-48
2022/10/16 02:17:28;;;;;;;2.60;2.40;;;15.40;99.90;;;;;;5225782;28;20798;-48
2022/10/16 02:20:00;;;;;;;1.60;1.60;;;15.40;99.90;;;;;;5226560;28;20188;-49
2022/10/16 02:22:38;;;;;;;2.13;2.03;;;15.40;99.90;;;;;;5225475;28;20444;-46
2022/10/16 02:25:15;;;;;;;2.07;1.97;;;15.40;99.90;;;;;;5227877;28;20425;-47
2022/10/16 02:28:19;;;;;;;5.07;1.80;;;15.40;99.90;;;;;;5221290;28;20460;-47
2022/10/16 02:30:55;;;;;;;4.30;2.07;;;15.40;99.90;;;;;;5223983;28;20467;-46
2022/10/16 02:33:28;;;;;;;2.47;2.30;;;15.40;99.90;;;;;;5227725;28;20528;-47
2022/10/16 02:35:59;;;;;;;1.90;1.80;;;15.50;99.90;;;;;;5242614;28;20917;-47
2022/10/16 02:38:30;;;;;;;1.60;1.50;;;15.50;99.90;;;;;;5228463;28;20462;-46
2022/10/16 02:41:01;;;;;;;3.73;1.50;;;15.40;99.90;;;;;;5227011;28;20178;-50
2022/10/16 02:43:33;;;;;;;6.63;2.00;;;15.60;99.90;;;;;;5224099;28;20932;-47
2022/10/16 02:46:04;;;;;;;2.00;1.90;;;15.50;99.90;;;;;;5221342;28;20429;-48
2022/10/16 02:48:35;;;;;;;1.33;1.33;;;15.50;99.90;;;;;;5220340;28;21073;-46
2022/10/16 02:51:06;;;;;;;1.53;1.53;;;15.60;99.90;;;;;;5225115;28;20223;-48
2022/10/16 02:53:37;;;;;;;1.27;1.27;;;15.60;99.90;;;;;;5203894;28;20577;-48
2022/10/16 02:56:07;;;;;;;1.33;1.30;;;15.40;99.90;;;;;;5224019;28;20175;-50
2022/10/16 02:58:38;;;;;;;1.40;1.40;;;15.40;99.90;;;;;;5226684;28;20205;-48
2022/10/16 03:01:08;;;;;;;1.20;1.20;;;15.50;99.90;;;;;;5219459;28;20187;-46
2022/10/16 03:03:39;;;;;;;1.43;1.43;;;15.40;99.90;;;;;;5227319;28;22527;-46
2022/10/16 03:06:09;;;;;;;1.90;1.80;;;15.40;99.90;;;;;;5226463;28;20727;-47
2022/10/16 03:08:40;;;;;;;2.70;2.50;;;15.30;99.90;;;;;;5239712;28;20433;-47
2022/10/16 03:11:11;;;;;;;1.90;1.80;;;15.30;99.90;;;;;;5224097;28;20202;-49
2022/10/16 03:13:41;;;;;;;1.50;1.47;;;15.20;99.90;;;;;;5226437;28;20187;-46
2022/10/16 03:16:12;;;;;;;2.20;2.07;;;15.10;99.90;;;;;;5220081;28;20559;-47
2022/10/16 03:18:42;;;;;;;1.90;1.80;;;15.10;99.90;;;;;;5226474;28;20574;-47
2022/10/16 03:21:13;;;;;;;4.93;2.00;;;15.00;99.90;;;;;;5228335;28;20256;-47
2022/10/16 03:23:43;;;;;;;1.70;1.63;;;15.00;99.90;;;;;;5227792;28;20205;-47
2022/10/16 03:26:14;;;;;;;2.80;2.70;;;14.80;99.90;;;;;;5225194;28;20554;-46
2022/10/16 03:28:45;;;;;;;1.80;1.80;;;14.80;99.90;;;;;;5227773;28;20293;-46
2022/10/16 03:31:15;;;;;;;3.93;1.70;;;14.80;99.90;;;;;;5226884;28;20225;-47
2022/10/16 03:33:46;;;;;;;1.53;1.53;;;14.70;99.90;;;;;;5224657;28;20625;-50
2022/10/16 03:36:16;;;;;;;3.03;1.10;;;14.60;99.90;;;;;;5227504;28;20183;-48
2022/10/16 03:38:47;;;;;;;1.20;1.20;;;14.60;99.90;;;;;;5223608;28;20610;-48
2022/10/16 03:41:17;;;;;;;2.20;2.10;;;14.50;99.90;;;;;;5222725;28;20191;-47
2022/10/16 03:43:48;;;;;;;1.80;1.80;;;14.50;99.90;;;;;;5227975;28;20262;-47
2022/10/16 03:46:19;;;;;;;2.30;2.10;;;14.60;99.90;;;;;;5225642;28;20187;-48
2022/10/16 03:48:49;;;;;;;1.80;1.80;;;14.50;99.90;;;;;;5226035;28;20283;-48
2022/10/16 03:51:20;;;;;;;2.50;1.70;;;14.50;99.90;;;;;;5215356;28;20219;-50
2022/10/16 03:53:51;;;;;;;2.50;1.73;;;14.40;99.90;;;;;;5221919;28;20256;-51
2022/10/16 03:56:21;;;;;;;2.17;1.90;;;14.40;99.90;;;;;;5222188;28;20191;-50
2022/10/16 03:58:52;;;;;;;10.30;1.90;;;14.40;99.90;;;;;;5217182;28;20202;-51
2022/10/16 04:01:22;;;;;;;1.87;1.70;;;14.30;99.90;;;;;;5223862;28;20187;-48
2022/10/16 04:03:53;;;;;;;3.17;1.77;;;14.30;99.90;;;;;;5223231;28;20195;-47
2022/10/16 04:06:23;;;;;;;4.83;2.07;;;14.30;99.90;;;;;;5221601;28;20241;-45
2022/10/16 04:08:54;;;;;;;2.30;2.20;;;14.40;99.90;;;;;;5220627;28;20210;-47
2022/10/16 04:11:24;;;;;;;1.97;1.87;;;14.30;99.90;;;;;;5225409;28;20265;-48
2022/10/16 04:13:55;;;;;;;1.50;1.40;;;14.30;99.90;;;;;;5227956;28;20226;-46
2022/10/16 04:16:26;;;;;;;1.80;1.70;;;14.30;99.90;;;;;;5226047;28;20228;-46
2022/10/16 04:18:56;;;;;;;1.67;1.57;;;14.40;99.90;;;;;;5234780;28;20213;-49
2022/10/16 04:21:27;;;;;;;2.30;2.20;;;14.30;99.90;;;;;;5227935;28;20194;-48
2022/10/16 04:23:57;;;;;;;1.70;1.67;;;14.30;99.90;;;;;;5231291;28;20187;-48
2022/10/16 04:26:28;;;;;;;1.70;1.70;;;14.40;99.90;;;;;;5221390;28;20193;-47
2022/10/16 04:28:59;;;;;;;1.83;1.70;;;14.40;99.90;;;;;;5231819;28;20211;-47
2022/10/16 04:31:30;;;;;;;1.13;1.13;;;14.40;99.90;;;;;;5225821;28;21055;-47
2022/10/16 04:34:00;;;;;;;1.60;1.60;;;14.30;99.90;;;;;;5220141;28;20188;-47
2022/10/16 04:36:31;;;;;;;2.27;2.17;;;14.30;99.90;;;;;;5223658;28;20305;-46
2022/10/16 04:39:01;;;;;;;1.70;1.70;;;14.40;99.90;;;;;;5228101;28;20215;-48
2022/10/16 04:41:32;;;;;;;2.60;2.40;;;14.50;99.90;;;;;;5220891;28;20190;-48
2022/10/16 04:44:02;;;;;;;5.60;1.90;;;14.50;99.90;;;;;;5227802;28;20614;-50
2022/10/16 04:46:33;;;;;;;2.20;1.37;;;14.50;99.90;;;;;;5223569;28;20245;-48
2022/10/16 04:49:04;;;;;;;1.70;1.70;;;14.40;99.90;;;;;;5228249;28;20233;-47
2022/10/16 04:51:34;;;;;;;1.97;1.97;;;14.30;99.90;;;;;;5224811;28;20210;-48
2022/10/16 04:54:08;;;;;;;1.30;1.30;;;14.30;99.90;;;;;;5217909;28;20182;-50
2022/10/16 04:56:47;;;;;;;2.20;1.80;;;14.30;99.90;;;;;;5220477;28;20195;-47
2022/10/16 04:59:19;;;;;;;2.10;1.90;;;14.30;99.90;;;;;;5229223;28;20433;-47
2022/10/16 05:01:49;;;;;;;1.80;1.80;;;14.20;99.90;;;;;;5217849;28;20461;-49
2022/10/16 05:04:20;;;;;;;3.37;1.87;;;14.20;99.90;;;;;;5229130;28;20824;-47
2022/10/16 05:06:50;;;;;;;1.93;1.83;;;14.10;99.90;;;;;;5221564;28;20195;-47
2022/10/16 05:09:21;;;;;;;1.63;1.57;;;14.10;99.90;;;;;;5204651;28;20238;-48
2022/10/16 05:11:52;;;;;;;1.70;1.60;;;14.00;99.90;;;;;;5219812;28;20207;-46
2022/10/16 05:14:25;;;;;;;1.70;1.70;;;14.00;99.90;;;;;;5230962;28;20554;-47
2022/10/16 05:16:55;;;;;;;2.00;1.90;;;14.10;99.90;;;;;;5221125;28;20187;-47
2022/10/16 05:19:26;;;;;;;1.77;1.73;;;14.10;99.90;;;;;;5229233;28;20449;-47
2022/10/16 05:21:57;;;;;;;2.20;2.10;;;14.10;99.90;;;;;;5217892;28;20246;-47
2022/10/16 05:24:27;;;;;;;1.70;1.70;;;14.00;99.90;;;;;;5225362;28;20222;-46
2022/10/16 05:26:58;;;;;;;2.33;2.20;;;14.10;99.90;;;;;;5223254;28;20192;-47
2022/10/16 05:29:29;;;;;;;1.53;1.43;;;14.20;99.90;;;;;;5244115;28;20246;-45
2022/10/16 05:31:59;;;;;;;1.90;1.80;;;14.20;99.90;;;;;;5221861;28;20209;-48
2022/10/16 05:34:30;;;;;;;2.13;2.03;;;14.20;99.90;;;;;;5207119;28;20191;-45
2022/10/16 05:37:00;;;;;;;2.10;2.10;;;14.40;99.90;;;;;;5220908;28;20191;-46
2022/10/16 05:39:34;;;;;;;2.30;1.60;;;14.30;99.90;;;;;;5224192;28;20239;-47
2022/10/16 05:42:05;;;;;;;1.90;1.90;;;14.20;99.90;;;;;;5218752;28;20195;-47
2022/10/16 05:44:35;;;;;;;2.07;2.00;;;14.20;99.90;;;;;;5210109;28;20450;-49
2022/10/16 05:47:06;;;;;;;2.10;2.00;;;14.30;99.90;;;;;;5226660;28;20930;-47
2022/10/16 05:49:37;;;;;;;1.87;1.87;;;14.60;99.90;;;;;;5224634;28;20226;-47
2022/10/16 05:52:10;;;;;;;2.00;1.90;;;14.60;99.90;;;;;;5224932;28;20214;-46
2022/10/16 05:54:44;;;;;;;1.57;1.50;;;14.60;99.90;;;;;;5206401;28;20191;-47
2022/10/16 05:57:14;;;;;;;24.53;2.50;;;14.70;99.90;;;;;;5229016;28;20495;-50
2022/10/16 05:59:48;;;;;;;3.53;2.30;;;14.80;99.90;;;;;;5227787;28;20441;-46
2022/10/16 06:02:19;;;;;;;2.37;2.17;;;14.80;99.90;;;;;;5225279;28;20535;-47
2022/10/16 06:04:53;;;;;;;1.50;1.50;;;14.80;99.90;;;;;;5225643;28;20441;-47
2022/10/16 06:07:24;;;;;;;2.20;2.10;;;14.80;99.90;;;;;;5223959;28;20189;-48
2022/10/16 06:09:54;;;;;;;3.30;2.40;;;14.70;99.90;;;;;;5222740;28;20937;-47
2022/10/16 06:12:26;;;;;;;2.23;2.13;;;14.70;99.90;;;;;;5213429;28;20289;-47
2022/10/16 06:14:57;;;;;;;1.97;1.87;;;14.70;99.90;;;;;;5224175;28;20187;-47
2022/10/16 06:17:27;;;;;;;1.80;1.80;;;14.80;99.90;;;;;;5224123;28;20987;-52
2022/10/16 06:20:01;;;;;;;2.10;2.10;;;14.80;99.90;;;;;;5223560;28;20746;-51
2022/10/16 06:22:32;;;;;;;3.67;3.00;;;14.90;99.90;;;;;;5224551;28;20274;-52
2022/10/16 06:25:03;;;;;;;3.90;2.93;;;14.90;99.90;;;;;;5220252;28;20599;-53
2022/10/16 06:27:33;;;;;;;4.60;3.83;;;15.00;99.90;;;;;;5215707;28;20588;-52
2022/10/16 06:30:07;;;;;;;3.20;3.00;;;14.90;99.90;;;;;;5223820;28;20297;-50
2022/10/16 06:32:37;;;;;;;7.53;3.73;;;14.90;99.90;;;;;;5223009;28;20224;-50
2022/10/16 06:35:08;;;;;;;7.00;6.07;;;15.00;99.90;;;;;;5226724;28;20870;-51
2022/10/16 06:37:38;;;;;;;7.73;5.27;;;15.10;99.90;;;;;;5223595;28;20671;-51
2022/10/16 06:40:09;;;;;;;4.70;4.30;;;15.20;99.90;;;;;;5214092;28;20184;-51
2022/10/16 06:42:40;;;;;;;5.50;4.03;;;15.30;99.90;;;;;;5225314;28;20183;-52
2022/10/16 06:45:11;;;;;;;4.13;3.70;;;15.40;99.90;;;;;;5220929;28;20231;-51
2022/10/16 06:47:44;;;;;;;3.00;2.80;;;15.60;99.90;;;;;;5223458;28;20301;-51
2022/10/16 06:50:15;;;;;;;2.60;2.40;;;15.60;99.90;;;;;;5217405;28;20218;-48
2022/10/16 06:52:45;;;;;;;1.97;1.93;;;15.70;99.90;;;;;;5224183;28;20537;-53
2022/10/16 06:55:16;;;;;;;2.33;2.23;;;15.60;99.90;;;;;;5213325;28;20179;-51
2022/10/16 06:57:48;;;;;;;5.63;3.30;;;15.50;99.90;;;;;;5210969;28;20210;-48
2022/10/16 07:00:19;;;;;;;2.67;2.47;;;15.60;99.90;;;;;;5218583;28;21036;-51
2022/10/16 07:02:49;;;;;;;3.17;2.97;;;15.70;99.90;;;;;;5219218;28;20486;-49
2022/10/16 07:05:20;;;;;;;3.80;3.50;;;15.80;99.90;;;;;;5219432;28;20198;-50
2022/10/16 07:07:50;;;;;;;3.27;3.07;;;15.80;99.90;;;;;;5218299;28;20646;-52
2022/10/16 07:10:23;;;;;;;2.50;2.40;;;15.90;99.90;;;;;;5209951;28;20215;-53
2022/10/16 07:12:54;;;;;;;2.73;2.37;;;16.10;99.90;;;;;;5200164;28;20201;-51
2022/10/16 07:15:26;;;;;;;1.70;1.60;;;16.50;99.90;;;;;;5222380;28;20540;-53
2022/10/16 07:17:56;;;;;;;1.70;1.60;;;16.50;99.90;;;;;;5223606;28;20239;-50
2022/10/16 07:20:27;;;;;;;1.70;1.57;;;16.60;99.90;;;;;;5219023;28;20464;-51
2022/10/16 07:22:57;;;;;;;3.03;1.20;;;16.80;99.90;;;;;;5222786;28;20241;-51
2022/10/16 07:25:28;;;;;;;1.93;1.77;;;16.90;99.90;;;;;;5219145;28;20259;-50
2022/10/16 07:27:58;;;;;;;1.23;1.10;;;17.10;99.90;;;;;;5221413;28;20212;-53
2022/10/16 07:30:29;;;;;;;1.60;1.50;;;17.10;99.90;;;;;;5222430;28;20674;-52
2022/10/16 07:32:59;;;;;;;1.10;1.07;;;17.20;99.90;;;;;;5222074;28;20233;-51
2022/10/16 07:35:30;;;;;;;1.73;1.63;;;17.30;99.90;;;;;;5225688;28;20179;-52
2022/10/16 07:38:01;;;;;;;1.47;1.37;;;17.30;99.90;;;;;;5212686;28;20223;-52
2022/10/16 07:40:31;;;;;;;1.53;1.40;;;17.40;99.90;;;;;;5229697;28;20218;-51
2022/10/16 07:43:05;;;;;;;1.40;1.30;;;17.50;99.90;;;;;;5223627;28;20555;-53
2022/10/16 07:45:35;;;;;;;1.70;1.60;;;17.50;99.90;;;;;;5224081;28;20213;-51
2022/10/16 07:48:06;;;;;;;3.03;1.50;;;17.60;99.90;;;;;;5223291;28;20497;-51
2022/10/16 07:50:37;;;;;;;1.53;1.53;;;17.70;99.90;;;;;;5225212;28;20214;-50
2022/10/16 07:53:08;;;;;;;1.10;1.10;;;17.80;99.90;;;;;;5221969;28;20240;-51
2022/10/16 07:55:39;;;;;;;1.00;1.00;;;17.70;99.90;;;;;;5227248;28;20441;-50
2022/10/16 07:58:09;;;;;;;1.80;1.70;;;17.60;99.90;;;;;;5226966;28;20230;-51
2022/10/16 08:00:40;;;;;;;1.83;1.50;;;17.60;99.90;;;;;;5218290;28;20438;-50
2022/10/16 08:03:10;;;;;;;2.70;2.10;;;17.60;99.90;;;;;;5227650;28;20194;-52
2022/10/16 08:05:41;;;;;;;2.67;1.17;;;17.60;99.90;;;;;;5234206;28;20289;-46
2022/10/16 08:08:14;;;;;;;6.03;1.10;;;17.50;99.90;;;;;;5228608;28;20217;-46
2022/10/16 08:10:45;;;;;;;1.40;1.30;;;17.40;99.90;;;;;;5220428;28;20211;-46
2022/10/16 08:13:15;;;;;;;1.57;1.47;;;17.40;99.90;;;;;;5227124;28;20425;-45
2022/10/16 08:15:47;;;;;;;0.90;0.90;;;17.50;99.90;;;;;;5226438;28;20175;-47
2022/10/16 08:18:17;;;;;;;1.63;1.60;;;17.50;99.90;;;;;;5226430;28;20198;-46
2022/10/16 08:20:54;;;;;;;3.30;2.20;;;17.70;99.90;;;;;;5226764;28;20907;-46
2022/10/16 08:23:26;;;;;;;1.23;1.23;;;17.80;99.90;;;;;;5226769;28;20198;-46
2022/10/16 08:26:02;;;;;;;1.40;1.07;;;18.10;99.90;;;;;;5230215;28;20432;-47
2022/10/16 08:28:34;;;;;;;1.10;1.10;;;18.10;99.90;;;;;;5226529;28;20468;-47
2022/10/16 08:31:10;;;;;;;1.20;1.10;;;18.20;99.90;;;;;;5230229;28;20472;-47
2022/10/16 08:33:43;;;;;;;1.07;1.07;;;18.10;99.90;;;;;;5224638;28;20435;-47
2022/10/16 08:36:15;;;;;;;2.07;0.80;;;18.10;99.90;;;;;;5224099;28;20438;-47
2022/10/16 08:38:50;;;;;;;1.70;1.43;;;18.10;99.90;;;;;;5228280;28;20472;-48
2022/10/16 08:41:36;;;;;;;0.97;0.97;;;18.20;99.90;;;;;;5226498;28;20452;-47
2022/10/16 08:44:29;;;;;;;1.60;1.60;;;18.20;99.90;;;;;;5225273;28;20795;-47
2022/10/16 08:47:22;;;;;;;2.20;1.60;;;18.20;99.90;;;;;;5226311;28;20441;-47
2022/10/16 08:49:59;;;;;;;1.40;1.40;;;18.20;99.90;;;;;;5219892;28;20473;-47
2022/10/16 08:52:33;;;;;;;7.53;1.30;;;18.40;99.90;;;;;;5217128;28;20892;-50
2022/10/16 08:55:04;;;;;;;2.73;1.57;;;18.50;99.90;;;;;;5213822;28;20522;-49
2022/10/16 08:57:35;;;;;;;1.40;1.30;;;18.50;99.90;;;;;;5205240;28;20811;-48
2022/10/16 09:00:13;;;;;;;1.40;1.40;;;18.50;99.90;;;;;;5213409;28;20452;-48
2022/10/16 09:03:04;;;;;;;1.87;1.40;;;18.40;99.90;;;;;;5225361;28;20241;-47
2022/10/16 09:05:51;;;;;;;1.37;1.27;;;18.40;99.90;;;;;;5225268;28;20441;-48
2022/10/16 09:08:47;;;;;;;1.43;1.30;;;18.40;99.90;;;;;;5219567;28;21556;-48
2022/10/16 09:11:50;;;;;;;1.50;1.50;;;18.40;99.90;;;;;;5220928;28;20818;-47
2022/10/16 09:14:47;;;;;;;1.43;1.40;;;18.70;99.90;;;;;;5225986;28;20491;-52
2022/10/16 09:17:41;;;;;;;3.13;1.70;;;19.10;99.90;;;;;;5226643;28;20964;-52
2022/10/16 09:20:30;;;;;;;3.33;1.00;;;19.30;99.90;;;;;;5216236;28;20452;-50
2022/10/16 09:23:03;;;;;;;1.10;1.10;;;19.50;99.90;;;;;;5223861;28;20469;-48
2022/10/16 09:25:35;;;;;;;0.93;0.93;;;19.40;99.90;;;;;;5227168;28;20432;-53
2022/10/16 09:28:07;;;;;;;2.70;1.50;;;19.40;99.90;;;;;;5228727;28;20818;-51
2022/10/16 09:30:39;;;;;;;2.10;1.07;;;19.50;99.90;;;;;;5229576;28;20530;-50
2022/10/16 09:33:12;;;;;;;1.20;1.20;;;19.60;99.90;;;;;;5222162;28;20525;-52
2022/10/16 09:35:52;;;;;;;3.33;1.20;;;19.70;99.90;;;;;;5221507;28;20452;-51
2022/10/16 09:38:31;;;;;;;1.50;1.40;;;19.60;99.90;;;;;;5225362;28;20456;-52
2022/10/16 09:41:29;;;;;;;1.57;1.50;;;19.60;99.90;;;;;;5217048;28;20441;-50
2022/10/16 09:44:01;;;;;;;2.53;1.17;;;19.60;99.90;;;;;;5215098;28;20437;-49
2022/10/16 09:46:35;;;;;;;4.87;1.60;;;19.80;99.90;;;;;;5221498;28;20858;-51
2022/10/16 09:49:21;;;;;;;11.87;1.50;;;19.80;99.90;;;;;;5216629;28;20519;-51
2022/10/16 09:52:03;;;;;;;1.33;1.10;;;19.90;99.90;;;;;;5217068;28;20478;-50
2022/10/16 09:54:33;;;;;;;1.30;1.30;;;19.80;99.90;;;;;;5216555;28;20440;-50
2022/10/16 09:57:06;;;;;;;3.00;1.70;;;19.70;99.90;;;;;;5216432;28;20430;-51
2022/10/16 09:59:50;;;;;;;1.40;1.30;;;19.70;99.90;;;;;;5219396;28;20530;-50
2022/10/16 10:02:35;;;;;;;1.07;1.00;;;19.70;99.90;;;;;;5215655;28;20433;-50
2022/10/16 10:05:28;;;;;;;2.07;1.80;;;19.70;99.90;;;;;;5219950;28;20434;-52
2022/10/16 10:08:07;;;;;;;1.63;1.53;;;19.80;99.90;;;;;;5219548;28;20453;-51
2022/10/16 10:10:42;;;;;;;2.00;1.80;;;19.80;99.90;;;;;;5220989;28;20469;-50
2022/10/16 10:13:21;;;;;;;3.20;2.00;;;19.80;99.90;;;;;;5220254;28;20437;-52
2022/10/16 10:15:52;;;;;;;1.10;1.10;;;19.80;99.90;;;;;;5220995;28;20433;-52
2022/10/16 10:18:23;;;;;;;1.37;1.27;;;19.80;99.90;;;;;;5224171;28;21037;-51
2022/10/16 10:20:59;;;;;;;9.67;1.87;;;19.90;99.90;;;;;;5218521;28;20442;-52
2022/10/16 10:23:31;;;;;;;1.37;1.37;;;19.90;99.90;;;;;;5215616;28;20433;-52
2022/10/16 10:26:07;;;;;;;1.40;1.30;;;19.90;99.90;;;;;;5217002;28;20441;-51
2022/10/16 10:28:56;;;;;;;3.00;2.47;;;20.00;99.90;;;;;;5223167;28;20453;-53
2022/10/16 10:31:43;;;;;;;1.50;1.40;;;20.00;99.90;;;;;;5212513;28;20579;-52
2022/10/16 10:34:36;;;;;;;4.40;2.00;;;20.00;99.90;;;;;;5220812;28;20438;-50
2022/10/16 10:37:26;;;;;;;0.87;0.87;;;19.90;99.90;;;;;;5222196;28;20962;-49
2022/10/16 10:40:09;;;;;;;1.60;0.80;;;19.60;99.90;;;;;;5213538;28;20430;-52
2022/10/16 10:42:52;;;;;;;4.87;2.27;;;19.80;99.90;;;;;;5212771;28;20421;-53
2022/10/16 10:45:52;;;;;;;2.30;1.53;;;19.90;99.90;;;;;;5220138;28;20915;-51
2022/10/16 10:48:45;;;;;;;1.40;1.40;;;19.80;99.90;;;;;;5223924;28;20460;-48
2022/10/16 10:51:30;;;;;;;2.57;1.03;;;19.90;99.90;;;;;;5224082;28;20472;-52
2022/10/16 10:54:30;;;;;;;4.10;1.80;;;20.10;99.90;;;;;;5225289;28;20916;-53
2022/10/16 10:57:23;;;;;;;0.87;0.87;;;20.20;99.90;;;;;;5230583;28;20421;-51
2022/10/16 10:59:53;;;;;;;1.30;1.17;;;20.20;99.90;;;;;;5225945;28;20432;-53
2022/10/16 11:02:40;;;;;;;1.50;1.50;;;20.20;99.90;;;;;;5221207;28;21002;-56
2022/10/16 11:05:14;;;;;;;2.87;2.63;;;20.30;99.90;;;;;;5214522;28;20310;-53
2022/10/16 11:08:10;;;;;;;1.20;1.20;;;20.50;99.90;;;;;;5216013;28;20450;-55
2022/10/16 11:10:56;;;;;;;2.40;1.40;;;20.50;99.90;;;;;;5219232;28;20874;-51
2022/10/16 11:13:38;;;;;;;3.17;1.37;;;20.80;99.90;;;;;;5220036;28;20932;-53
2022/10/16 11:16:29;;;;;;;1.40;1.40;;;20.90;99.90;;;;;;5218319;28;20437;-52
2022/10/16 11:19:03;;;;;;;5.80;0.93;;;20.80;99.90;;;;;;5235363;28;20566;-53
2022/10/16 11:21:43;;;;;;;12.17;1.63;;;20.80;99.90;;;;;;5214399;28;20459;-53
2022/10/16 11:24:31;;;;;;;1.37;1.27;;;20.90;99.90;;;;;;5222225;28;20862;-52
2022/10/16 11:27:07;;;;;;;1.43;1.30;;;20.80;99.90;;;;;;5228956;28;20435;-49
2022/10/16 11:29:48;;;;;;;1.07;1.07;;;20.90;99.90;;;;;;5221991;28;20468;-55
2022/10/16 11:32:28;;;;;;;2.10;1.27;;;20.90;99.90;;;;;;5224123;28;20952;-52
2022/10/16 11:35:34;;;;;;;1.17;1.17;;;20.90;99.90;;;;;;5227720;28;20433;-53
2022/10/16 11:38:21;;;;;;;3.30;2.90;;;20.80;99.90;;;;;;5225065;28;20817;-52
2022/10/16 11:40:57;;;;;;;1.30;1.20;;;20.60;99.90;;;;;;5244506;28;20445;-55
2022/10/16 11:43:30;;;;;;;1.50;1.40;;;20.40;99.90;;;;;;5228148;28;20456;-52
2022/10/16 11:46:12;;;;;;;1.20;1.20;;;20.20;99.90;;;;;;5219577;28;20434;-52
2022/10/16 11:48:50;;;;;;;1.53;1.43;;;20.10;99.90;;;;;;5219361;28;20482;-52
2022/10/16 11:51:20;;;;;;;1.13;1.13;;;19.90;99.90;;;;;;5226546;28;20805;-52
2022/10/16 11:54:00;;;;;;;1.23;1.00;;;19.70;99.90;;;;;;5218586;28;20429;-52
2022/10/16 11:56:36;;;;;;;5.40;1.23;;;19.60;99.90;;;;;;5219748;28;20193;-52
2022/10/16 11:59:40;;;;;;;0.90;0.90;;;19.60;99.90;;;;;;5227447;28;20448;-53
2022/10/16 12:02:28;;;;;;;0.90;0.90;;;19.50;99.90;;;;;;5220986;28;20429;-52
2022/10/16 12:05:19;;;;;;;2.40;1.60;;;19.30;99.90;;;;;;5224473;28;20885;-52
2022/10/16 12:08:14;;;;;;;1.80;1.60;;;19.20;99.90;;;;;;5221927;28;20461;-51
2022/10/16 12:10:47;;;;;;;1.07;0.97;;;19.10;99.90;;;;;;5228375;28;20540;-52
2022/10/16 12:13:32;;;;;;;1.17;1.17;;;18.90;99.90;;;;;;5222010;28;20435;-52
2022/10/16 12:16:12;;;;;;;1.40;1.30;;;18.90;99.90;;;;;;5221548;28;20433;-51
2022/10/16 12:18:45;;;;;;;1.53;1.40;;;18.90;99.90;;;;;;5226590;28;20456;-52
2022/10/16 12:21:18;;;;;;;1.47;1.43;;;19.00;99.90;;;;;;5219051;28;20429;-49
2022/10/16 12:23:52;;;;;;;1.00;1.00;;;19.10;99.90;;;;;;5224221;28;20456;-52
2022/10/16 12:26:28;;;;;;;5.60;1.10;;;19.20;99.90;;;;;;5224929;28;20441;-52
2022/10/16 12:29:33;;;;;;;1.20;1.20;;;19.30;99.90;;;;;;5222105;28;20538;-53
2022/10/16 12:32:22;;;;;;;1.10;1.10;;;19.30;99.90;;;;;;5221277;28;20878;-53
2022/10/16 12:34:52;;;;;;;3.33;1.10;;;19.40;99.90;;;;;;5224376;28;20476;-52
2022/10/16 12:37:30;;;;;;;4.47;1.47;;;19.40;99.90;;;;;;5224200;28;20470;-50
2022/10/16 12:40:23;;;;;;;0.80;0.80;;;19.40;99.90;;;;;;5226320;28;20190;-53
2022/10/16 12:42:54;;;;;;;1.47;1.30;;;19.40;99.90;;;;;;5225444;28;20503;-52
2022/10/16 12:45:31;;;;;;;0.97;0.97;;;19.40;99.90;;;;;;5230667;28;20467;-51
2022/10/16 12:48:18;;;;;;;2.10;1.10;;;19.40;99.90;;;;;;5226138;28;20555;-52
2022/10/16 12:50:49;;;;;;;0.80;0.80;;;19.50;99.90;;;;;;5226583;28;20475;-53
2022/10/16 12:53:28;;;;;;;5.57;1.37;;;19.50;99.90;;;;;;5225677;28;20791;-51
2022/10/16 12:56:16;;;;;;;2.47;2.27;;;19.50;99.90;;;;;;5224768;28;20189;-52
2022/10/16 12:59:04;;;;;;;2.60;2.40;;;19.60;99.90;;;;;;5222784;28;20969;-52
2022/10/16 13:02:03;;;;;;;2.17;2.17;;;19.50;99.90;;;;;;5218425;28;20525;-52
2022/10/16 13:05:21;;;;;;;2.23;2.17;;;19.60;99.90;;;;;;5198286;28;20805;-51
2022/10/16 13:08:14;;;;;;;3.33;2.97;;;19.90;99.80;;;;;;5187703;28;20604;-52
2022/10/16 13:10:56;;;;;;;3.20;1.67;;;20.10;99.20;;;;;;5189605;28;20469;-52
2022/10/16 13:13:39;;;;;;;1.40;1.17;;;20.00;98.80;;;;;;5212430;28;20454;-52
2022/10/16 13:16:15;;;;;;;2.93;1.67;;;20.00;99.10;;;;;;5220356;28;20433;-51
2022/10/16 13:19:08;;;;;;;1.40;0.63;;;20.10;98.50;;;;;;5232628;28;20449;-52
2022/10/16 13:22:02;;;;;;;2.77;2.57;;;20.00;98.20;;;;;;5224493;28;20459;-50
2022/10/16 13:25:07;;;;;;;2.23;2.03;;;20.00;98.00;;;;;;5226953;28;20446;-52
2022/10/16 13:28:00;;;;;;;3.83;2.23;;;19.90;98.40;;;;;;5222982;28;20460;-54
2022/10/16 13:30:44;;;;;;;4.83;2.50;;;20.00;98.20;;;;;;5213948;28;20497;-53